createdAt,value
2023-05-08T00:02:31.120Z,68.60
2023-05-08T00:07:34.704Z,68.21
2023-05-08T00:12:38.706Z,68.32
2023-05-08T00:17:43.842Z,67.46
2023-05-08T00:22:47.319Z,67.75
2023-05-08T00:27:50.963Z,68.25
2023-05-08T00:32:55.882Z,68.38
2023-05-08T00:37:59.455Z,68.57
2023-05-08T00:43:02.985Z,68.64
2023-05-08T00:48:08.488Z,67.63
2023-05-08T00:53:13.457Z,68.26
2023-05-08T00:58:17.226Z,68.02
2023-05-08T01:03:22.756Z,67.47
2023-05-08T01:08:26.909Z,67.94
2023-05-08T01:13:37.852Z,67.73
2023-05-08T01:18:46.088Z,67.75
2023-05-08T01:24:20.928Z,67.65
2023-05-08T01:29:36.503Z,67.97
2023-05-08T01:34:47.993Z,67.64
2023-05-08T01:39:56.440Z,67.10
2023-05-08T01:45:03.485Z,66.98
2023-05-08T01:50:13.724Z,67.99
2023-05-08T01:55:34.658Z,67.79
2023-05-08T02:00:40.246Z,67.94
2023-05-08T02:05:45.843Z,67.59
2023-05-08T02:10:50.153Z,67.75
2023-05-08T02:15:55.380Z,67.38
2023-05-08T02:21:01.016Z,67.02
2023-05-08T02:26:05.489Z,67.11
2023-05-08T02:31:09.700Z,67.94
2023-05-08T02:36:17.547Z,67.63
2023-05-08T02:41:22.916Z,67.15
2023-05-08T02:46:29.527Z,66.90
2023-05-08T02:51:41.275Z,67.78
2023-05-08T02:56:48.873Z,66.67
2023-05-08T03:01:55.907Z,67.07
2023-05-08T03:07:01.020Z,66.48
2023-05-08T03:12:08.176Z,67.17
2023-05-08T03:17:15.047Z,66.14
2023-05-08T03:22:21.212Z,67.31
2023-05-08T03:27:25.389Z,66.59
2023-05-08T03:32:30.119Z,66.38
2023-05-08T03:37:35.306Z,66.74
2023-05-08T03:42:39.034Z,66.94
2023-05-08T03:47:44.309Z,66.03
2023-05-08T03:52:49.592Z,66.74
2023-05-08T03:57:58.584Z,67.12
2023-05-08T04:03:11.102Z,66.16
2023-05-08T04:08:19.103Z,66.10
2023-05-08T04:13:29.050Z,67.07
2023-05-08T04:18:33.313Z,67.05
2023-05-08T04:23:40.468Z,66.48
2023-05-08T04:28:44.352Z,67.13
2023-05-08T04:33:48.002Z,66.13
2023-05-08T04:38:52.915Z,66.07
2023-05-08T04:43:56.528Z,65.78
2023-05-08T04:49:00.137Z,65.92
2023-05-08T04:54:05.235Z,66.47
2023-05-08T04:59:08.766Z,66.28
2023-05-08T05:04:12.430Z,66.52
2023-05-08T05:09:17.514Z,66.89
2023-05-08T05:14:21.183Z,66.43
2023-05-08T05:19:24.615Z,66.99
2023-05-08T05:24:29.472Z,66.21
2023-05-08T05:29:33.009Z,66.00
2023-05-08T05:34:36.709Z,65.62
2023-05-08T05:39:41.632Z,66.52
2023-05-08T05:44:45.245Z,65.51
2023-05-08T05:49:48.704Z,66.32
2023-05-08T05:54:53.551Z,66.30
2023-05-08T05:59:57.064Z,65.25
2023-05-08T06:05:00.567Z,65.90
2023-05-08T06:10:06.073Z,65.74
2023-05-08T06:15:10.488Z,66.36
2023-05-08T06:20:14.341Z,65.61
2023-05-08T06:25:20.132Z,66.50
2023-05-08T06:30:23.793Z,65.16
2023-05-08T06:35:27.230Z,65.16
2023-05-08T06:40:32.227Z,66.44
2023-05-08T06:45:35.817Z,66.31
2023-05-08T06:50:39.621Z,66.52
2023-05-08T06:55:45.946Z,66.25
2023-05-08T07:00:49.442Z,64.85
2023-05-08T07:05:53.044Z,65.36
2023-05-08T07:10:57.916Z,66.02
2023-05-08T07:16:01.475Z,65.80
2023-05-08T07:21:05.216Z,65.74
2023-05-08T07:26:10.142Z,66.07
2023-05-08T07:31:13.767Z,66.40
2023-05-08T07:36:17.439Z,66.04
2023-05-08T07:41:22.386Z,65.67
2023-05-08T07:46:25.956Z,65.36
2023-05-08T07:51:29.518Z,66.32
2023-05-08T07:56:34.348Z,65.94
2023-05-08T08:01:37.890Z,66.37
2023-05-08T08:06:41.727Z,66.09
2023-05-08T08:11:46.649Z,66.59
2023-05-08T08:16:50.293Z,66.43
2023-05-08T08:21:53.849Z,65.55
2023-05-08T08:26:58.766Z,66.83
2023-05-08T08:32:03.435Z,66.55
2023-05-08T08:37:07.133Z,66.28
2023-05-08T08:42:12.548Z,66.21
2023-05-08T08:47:18.387Z,65.74
2023-05-08T08:52:29.332Z,66.59
2023-05-08T08:57:35.942Z,66.35
2023-05-08T09:02:39.538Z,66.01
2023-05-08T09:07:44.065Z,66.29
2023-05-08T09:12:49.602Z,66.23
2023-05-08T09:17:53.213Z,66.34
2023-05-08T09:22:56.984Z,66.81
2023-05-08T09:28:17.112Z,66.01
2023-05-08T09:33:21.010Z,66.97
2023-05-08T09:38:35.244Z,66.42
2023-05-08T09:43:40.418Z,66.67
2023-05-08T09:48:45.966Z,65.98
2023-05-08T09:53:52.387Z,66.05
2023-05-08T09:58:57.307Z,66.00
2023-05-08T10:04:01.548Z,66.06
2023-05-08T10:09:09.865Z,66.78
2023-05-08T10:14:14.789Z,66.31
2023-05-08T10:19:19.631Z,66.14
2023-05-08T10:24:28.375Z,67.67
2023-05-08T10:29:37.448Z,66.67
2023-05-08T10:34:42.874Z,66.57
2023-05-08T10:39:46.670Z,66.48
2023-05-08T10:44:51.862Z,66.57
2023-05-08T10:50:03.236Z,67.56
2023-05-08T10:55:24.293Z,66.76
2023-05-08T11:00:33.312Z,66.55
2023-05-08T11:05:47.781Z,67.63
2023-05-08T11:10:54.341Z,67.83
2023-05-08T11:15:59.282Z,67.06
2023-05-08T11:21:04.887Z,67.91
2023-05-08T11:26:16.660Z,67.80
2023-05-08T11:31:21.826Z,67.90
2023-05-08T11:36:26.104Z,67.43
2023-05-08T11:41:29.610Z,67.81
2023-05-08T11:46:40.546Z,68.21
2023-05-08T11:51:47.784Z,67.76
2023-05-08T11:56:52.226Z,67.52
2023-05-08T12:02:07.772Z,68.01
2023-05-08T12:07:12.955Z,67.13
2023-05-08T12:12:16.454Z,67.53
2023-05-08T12:17:21.428Z,67.74
2023-05-08T12:22:24.959Z,67.36
2023-05-08T12:27:28.570Z,67.00
2023-05-08T12:32:33.519Z,68.01
2023-05-08T12:37:37.018Z,67.76
2023-05-08T12:42:43.924Z,67.13
2023-05-08T12:47:49.772Z,68.47
2023-05-08T12:52:53.568Z,67.19
2023-05-08T12:58:04.756Z,68.50
2023-05-08T13:03:10.904Z,67.91
2023-05-08T13:08:14.570Z,68.68
2023-05-08T13:13:20.033Z,68.36
2023-05-08T13:18:26.845Z,67.08
2023-05-08T13:23:30.439Z,68.15
2023-05-08T13:28:34.058Z,68.31
2023-05-08T13:33:39.101Z,67.82
2023-05-08T13:38:42.597Z,68.59
2023-05-08T13:43:46.132Z,67.11
2023-05-08T13:48:51.071Z,68.03
2023-05-08T13:53:54.556Z,67.38
2023-05-08T13:58:58.039Z,67.91
2023-05-08T14:04:03.101Z,67.50
2023-05-08T14:09:06.627Z,68.24
2023-05-08T14:14:10.155Z,68.76
2023-05-08T14:19:15.066Z,69.08
2023-05-08T14:24:18.526Z,68.49
2023-05-08T14:29:22.033Z,67.52
2023-05-08T14:34:26.972Z,68.32
2023-05-08T14:39:30.366Z,67.84
2023-05-08T14:44:34.072Z,68.72
2023-05-08T14:49:39.137Z,68.97
2023-05-08T14:54:42.869Z,67.75
2023-05-08T14:59:55.018Z,68.51
2023-05-08T15:05:00.399Z,68.79
2023-05-08T15:10:04.213Z,68.98
2023-05-08T15:15:08.601Z,68.43
2023-05-08T15:20:13.651Z,69.06
2023-05-08T15:25:17.437Z,67.91
2023-05-08T15:30:21.253Z,68.80
2023-05-08T15:35:26.163Z,68.70
2023-05-08T15:40:29.630Z,67.95
2023-05-08T15:45:33.079Z,68.67
2023-05-08T15:50:38.014Z,68.50
2023-05-08T15:55:42.438Z,68.32
2023-05-08T16:00:45.890Z,69.18
2023-05-08T16:05:52.184Z,68.23
2023-05-08T16:10:56.123Z,69.26
2023-05-08T16:16:04.219Z,68.85
2023-05-08T16:21:12.237Z,69.16
2023-05-08T16:26:16.734Z,69.04
2023-05-08T16:31:20.202Z,68.37
2023-05-08T16:36:25.196Z,69.27
2023-05-08T16:41:28.623Z,68.78
2023-05-08T16:46:32.224Z,68.58
2023-05-08T16:51:37.092Z,68.31
2023-05-08T16:56:40.577Z,68.81
2023-05-08T17:01:44.108Z,68.69
2023-05-08T17:06:49.225Z,69.20
2023-05-08T17:11:52.701Z,68.52
2023-05-08T17:16:56.130Z,68.76
2023-05-08T17:22:00.969Z,68.96
2023-05-08T17:27:04.545Z,68.86
2023-05-08T17:32:08.116Z,68.57
2023-05-08T17:37:13.198Z,68.77
2023-05-08T17:42:16.719Z,67.74
2023-05-08T17:47:20.352Z,68.04
2023-05-08T17:52:25.441Z,69.09
2023-05-08T17:57:28.869Z,68.21
2023-05-08T18:02:32.442Z,67.71
2023-05-08T18:07:37.379Z,68.30
2023-05-08T18:12:40.909Z,68.72
2023-05-08T18:17:44.525Z,68.06
2023-05-08T18:22:49.456Z,68.31
2023-05-08T18:27:52.994Z,68.56
2023-05-08T18:32:56.513Z,68.64
2023-05-08T18:38:01.428Z,68.86
2023-05-08T18:43:04.971Z,69.13
2023-05-08T18:48:08.513Z,68.53
2023-05-08T18:53:14.763Z,69.02
2023-05-08T18:58:18.264Z,68.44
2023-05-08T19:03:21.762Z,68.12
2023-05-08T19:08:26.817Z,68.39
2023-05-08T19:13:30.344Z,68.28
2023-05-08T19:18:33.990Z,68.96
2023-05-08T19:23:39.049Z,68.17
2023-05-08T19:28:42.569Z,68.84
2023-05-08T19:33:47.402Z,68.68
2023-05-08T19:38:52.263Z,68.35
2023-05-08T19:43:55.751Z,67.66
2023-05-08T19:48:59.266Z,67.82
2023-05-08T19:54:04.136Z,67.76
2023-05-08T19:59:07.621Z,68.91
2023-05-08T20:04:11.177Z,68.50
2023-05-08T20:09:16.177Z,68.91
2023-05-08T20:14:19.645Z,67.63
2023-05-08T20:19:23.254Z,67.98
2023-05-08T20:24:28.187Z,68.45
2023-05-08T20:29:31.694Z,68.14
2023-05-08T20:34:35.289Z,68.36
2023-05-08T20:39:40.179Z,69.23
2023-05-08T20:44:43.661Z,68.05
2023-05-08T20:49:47.186Z,68.26
2023-05-08T20:54:52.160Z,68.90
2023-05-08T20:59:55.681Z,68.17
2023-05-08T21:04:59.250Z,68.13
2023-05-08T21:10:04.382Z,68.78
2023-05-08T21:15:09.289Z,68.61
2023-05-08T21:20:13.825Z,67.77
2023-05-08T21:25:19.213Z,67.99
2023-05-08T21:30:22.808Z,68.15
2023-05-08T21:35:26.479Z,68.75
2023-05-08T21:40:31.528Z,67.70
2023-05-08T21:45:35.353Z,68.88
2023-05-08T21:50:38.891Z,68.93
2023-05-08T21:55:43.773Z,69.00
2023-05-08T22:00:47.512Z,68.55
2023-05-08T22:05:50.955Z,67.50
2023-05-08T22:10:56.392Z,69.02
2023-05-08T22:15:59.934Z,68.27
2023-05-08T22:21:03.372Z,68.82
2023-05-08T22:26:08.512Z,68.37
2023-05-08T22:31:12.684Z,68.54
2023-05-08T22:36:16.243Z,68.12
2023-05-08T22:41:22.400Z,68.99
2023-05-08T22:46:26.163Z,68.08
2023-05-08T22:51:30.528Z,68.39
2023-05-08T22:56:35.926Z,68.25
2023-05-08T23:01:39.577Z,68.17
2023-05-08T23:06:43.188Z,68.45
2023-05-08T23:11:49.941Z,68.06
2023-05-08T23:16:53.630Z,68.97
2023-05-08T23:21:57.241Z,68.13
2023-05-08T23:27:02.100Z,68.36
2023-05-08T23:32:05.657Z,68.64
2023-05-08T23:37:09.108Z,68.60
2023-05-08T23:42:14.419Z,69.18
2023-05-08T23:47:19.428Z,68.85
2023-05-08T23:52:23.398Z,68.53
2023-05-08T23:57:28.323Z,69.01
